createdAt,value
2023-05-13T00:01:20.022Z,7.00
2023-05-13T00:03:47.979Z,7.00
2023-05-13T00:06:15.846Z,7.40
2023-05-13T00:08:43.859Z,6.50
2023-05-13T00:11:11.842Z,6.90
2023-05-13T00:13:39.572Z,6.60
2023-05-13T00:16:07.671Z,7.10
2023-05-13T00:18:35.435Z,6.80
2023-05-13T00:21:03.207Z,7.70
2023-05-13T00:23:31.129Z,8.30
2023-05-13T00:26:00.376Z,7.60
2023-05-13T00:28:28.162Z,7.10
2023-05-13T00:30:55.939Z,7.50
2023-05-13T00:33:23.685Z,7.20
2023-05-13T00:35:51.549Z,7.00
2023-05-13T00:38:19.307Z,7.50
2023-05-13T00:40:48.669Z,7.10
2023-05-13T00:43:17.114Z,7.30
2023-05-13T00:45:44.928Z,7.90
2023-05-13T00:48:13.181Z,8.00
2023-05-13T00:50:44.719Z,8.60
2023-05-13T00:53:13.498Z,7.90
2023-05-13T00:55:46.135Z,8.10
2023-05-13T00:58:14.308Z,8.40
2023-05-13T01:00:54.340Z,7.80
2023-05-13T01:03:35.579Z,7.70
2023-05-13T01:06:16.431Z,7.80
2023-05-13T01:09:15.522Z,8.10
2023-05-13T01:11:46.009Z,8.00
2023-05-13T01:14:22.992Z,8.60
2023-05-13T01:17:32.018Z,8.30
2023-05-13T01:20:03.910Z,7.40
2023-05-13T01:22:32.363Z,8.20
2023-05-13T01:25:00.534Z,8.10
2023-05-13T01:27:28.551Z,8.40
2023-05-13T01:29:57.688Z,7.80
2023-05-13T01:32:26.164Z,8.00
2023-05-13T01:34:55.912Z,8.50
2023-05-13T01:37:24.197Z,7.60
2023-05-13T01:39:52.412Z,8.30
2023-05-13T01:42:20.216Z,8.20
2023-05-13T01:44:48.010Z,7.60
2023-05-13T01:47:16.050Z,7.50
2023-05-13T01:49:43.905Z,8.60
2023-05-13T01:52:11.713Z,8.30
2023-05-13T01:54:39.418Z,8.70
2023-05-13T01:57:07.177Z,8.30
2023-05-13T01:59:34.930Z,8.30
2023-05-13T02:02:04.271Z,7.90
2023-05-13T02:04:32.234Z,8.70
2023-05-13T02:07:00.048Z,8.30
2023-05-13T02:09:27.787Z,8.60
2023-05-13T02:11:55.589Z,8.30
2023-05-13T02:14:23.398Z,8.40
2023-05-13T02:16:51.279Z,8.50
2023-05-13T02:19:19.960Z,8.50
2023-05-13T02:21:47.714Z,8.40
2023-05-13T02:24:15.490Z,7.90
2023-05-13T02:26:45.222Z,8.30
2023-05-13T02:29:14.099Z,8.60
2023-05-13T02:31:43.394Z,8.60
2023-05-13T02:34:11.356Z,7.70
2023-05-13T02:36:39.187Z,8.10
2023-05-13T02:39:07.147Z,8.60
2023-05-13T02:41:35.350Z,8.60
2023-05-13T02:44:03.251Z,8.60
2023-05-13T02:46:31.057Z,8.60
2023-05-13T02:48:59.794Z,8.40
2023-05-13T02:51:27.569Z,8.20
2023-05-13T02:53:55.486Z,8.80
2023-05-13T02:56:23.384Z,8.90
2023-05-13T02:58:51.151Z,8.60
2023-05-13T03:01:18.978Z,8.40
2023-05-13T03:03:46.939Z,9.00
2023-05-13T03:06:14.777Z,8.50
2023-05-13T03:08:42.667Z,8.10
2023-05-13T03:11:11.112Z,8.30
2023-05-13T03:13:38.844Z,7.90
2023-05-13T03:16:06.667Z,8.50
2023-05-13T03:18:36.139Z,7.90
2023-05-13T03:21:04.228Z,8.70
2023-05-13T03:23:33.737Z,8.40
2023-05-13T03:26:02.349Z,9.10
2023-05-13T03:28:30.098Z,8.60
2023-05-13T03:30:58.016Z,8.10
2023-05-13T03:33:25.780Z,8.60
2023-05-13T03:35:53.580Z,8.40
2023-05-13T03:38:21.454Z,7.30
2023-05-13T03:40:49.260Z,8.10
2023-05-13T03:43:17.066Z,8.40
2023-05-13T03:45:48.544Z,8.30
2023-05-13T03:48:16.468Z,8.40
2023-05-13T03:50:44.224Z,8.50
2023-05-13T03:53:12.676Z,8.10
2023-05-13T03:55:40.569Z,8.60
2023-05-13T03:58:16.553Z,8.70
2023-05-13T04:00:48.226Z,7.60
2023-05-13T04:03:17.470Z,8.30
2023-05-13T04:05:49.124Z,8.30
2023-05-13T04:08:17.045Z,8.10
2023-05-13T04:10:45.328Z,8.70
2023-05-13T04:13:13.153Z,8.50
2023-05-13T04:15:40.938Z,8.60
2023-05-13T04:18:09.841Z,8.20
2023-05-13T04:20:39.783Z,8.50
2023-05-13T04:23:07.779Z,8.30
2023-05-13T04:25:39.389Z,8.30
2023-05-13T04:28:07.468Z,8.00
2023-05-13T04:30:36.578Z,8.70
2023-05-13T04:33:04.744Z,8.80
2023-05-13T04:35:32.691Z,8.60
2023-05-13T04:38:00.484Z,9.10
2023-05-13T04:40:28.234Z,9.10
2023-05-13T04:42:56.084Z,8.60
2023-05-13T04:45:26.668Z,9.20
2023-05-13T04:47:56.187Z,8.60
2023-05-13T04:50:26.489Z,8.70
2023-05-13T04:52:56.544Z,8.40
2023-05-13T04:55:26.744Z,8.50
2023-05-13T04:57:55.713Z,8.60
2023-05-13T05:00:24.270Z,8.20
2023-05-13T05:02:52.199Z,8.10
2023-05-13T05:05:19.973Z,6.50
2023-05-13T05:07:47.737Z,7.20
2023-05-13T05:10:15.724Z,7.30
2023-05-13T05:12:43.470Z,7.20
2023-05-13T05:15:15.849Z,7.30
2023-05-13T05:17:45.426Z,7.20
2023-05-13T05:20:13.814Z,6.30
2023-05-13T05:22:42.321Z,5.50
2023-05-13T05:25:11.820Z,5.70
2023-05-13T05:27:40.276Z,5.30
2023-05-13T05:30:10.982Z,5.10
2023-05-13T05:32:38.972Z,5.40
2023-05-13T05:35:07.954Z,5.20
2023-05-13T05:37:36.724Z,5.40
2023-05-13T05:40:05.664Z,5.20
2023-05-13T05:42:33.472Z,5.20
2023-05-13T05:45:01.547Z,5.20
2023-05-13T05:47:29.454Z,5.40
2023-05-13T05:49:57.314Z,5.10
2023-05-13T05:52:25.270Z,5.20
2023-05-13T05:54:53.043Z,4.60
2023-05-13T05:57:20.853Z,4.60
2023-05-13T05:59:48.797Z,3.90
2023-05-13T06:02:16.807Z,4.20
2023-05-13T06:04:45.010Z,4.20
2023-05-13T06:07:13.559Z,4.20
2023-05-13T06:09:41.352Z,4.60
2023-05-13T06:12:09.412Z,4.60
2023-05-13T06:14:37.323Z,4.60
2023-05-13T06:17:05.877Z,4.50
2023-05-13T06:19:34.310Z,5.00
2023-05-13T06:22:03.942Z,4.70
2023-05-13T06:24:32.027Z,4.50
2023-05-13T06:26:59.949Z,3.90
2023-05-13T06:29:29.116Z,4.00
2023-05-13T06:31:57.217Z,3.90
2023-05-13T06:34:25.090Z,3.90
2023-05-13T06:36:52.847Z,4.50
2023-05-13T06:39:20.868Z,4.10
2023-05-13T06:41:48.803Z,3.60
2023-05-13T06:44:16.684Z,4.00
2023-05-13T06:46:44.574Z,3.80
2023-05-13T06:49:12.349Z,3.70
2023-05-13T06:51:40.158Z,3.70
2023-05-13T06:54:07.924Z,4.20
2023-05-13T06:56:35.660Z,4.30
2023-05-13T06:59:03.402Z,4.40
2023-05-13T07:01:31.206Z,4.10
2023-05-13T07:03:59.177Z,4.50
2023-05-13T07:06:26.914Z,4.40
2023-05-13T07:08:54.658Z,4.30
2023-05-13T07:11:22.889Z,4.40
2023-05-13T07:13:50.713Z,4.30
2023-05-13T07:16:18.447Z,4.70
2023-05-13T07:18:46.461Z,4.60
2023-05-13T07:21:15.639Z,4.70
2023-05-13T07:23:44.757Z,4.40
2023-05-13T07:26:12.603Z,4.20
2023-05-13T07:28:40.547Z,4.20
2023-05-13T07:31:08.510Z,4.20
2023-05-13T07:33:36.382Z,4.10
2023-05-13T07:36:04.680Z,4.10
2023-05-13T07:38:32.568Z,3.80
2023-05-13T07:41:00.431Z,4.20
2023-05-13T07:43:28.571Z,3.70
2023-05-13T07:45:56.274Z,3.60
2023-05-13T07:48:25.796Z,3.80
2023-05-13T07:50:53.932Z,3.60
2023-05-13T07:53:21.638Z,4.00
2023-05-13T07:55:49.396Z,3.70
2023-05-13T07:58:18.688Z,3.70
2023-05-13T08:00:46.550Z,4.20
2023-05-13T08:03:14.562Z,4.00
2023-05-13T08:05:42.684Z,3.70
2023-05-13T08:08:10.614Z,5.20
2023-05-13T08:10:38.385Z,3.80
2023-05-13T08:13:06.218Z,3.80
2023-05-13T08:15:33.997Z,4.00
2023-05-13T08:18:01.785Z,3.80
2023-05-13T08:20:30.104Z,4.10
2023-05-13T08:22:58.871Z,3.80
2023-05-13T08:25:26.752Z,3.80
2023-05-13T08:27:54.622Z,3.90
2023-05-13T08:30:22.698Z,4.10
2023-05-13T08:32:50.557Z,4.00
2023-05-13T08:35:18.368Z,3.50
2023-05-13T08:37:46.136Z,3.90
2023-05-13T08:40:15.297Z,3.60
2023-05-13T08:42:46.365Z,4.00
2023-05-13T08:45:16.665Z,3.70
2023-05-13T08:47:54.806Z,4.20
2023-05-13T08:50:23.289Z,4.60
2023-05-13T08:52:54.190Z,4.40
2023-05-13T08:55:24.312Z,4.40
2023-05-13T08:57:53.153Z,4.70
2023-05-13T09:00:21.863Z,4.30
2023-05-13T09:02:51.357Z,4.20
2023-05-13T09:05:21.625Z,4.30
2023-05-13T09:07:49.750Z,3.80
2023-05-13T09:10:18.314Z,3.60
2023-05-13T09:12:53.308Z,4.20
2023-05-13T09:15:26.996Z,4.10
2023-05-13T09:18:02.664Z,3.70
2023-05-13T09:20:32.207Z,3.70
2023-05-13T09:23:07.554Z,4.10
2023-05-13T09:25:37.400Z,3.40
2023-05-13T09:28:07.988Z,3.90
2023-05-13T09:30:41.352Z,4.20
2023-05-13T09:33:22.731Z,3.70
2023-05-13T09:35:53.705Z,3.90
2023-05-13T09:38:31.667Z,3.50
2023-05-13T09:41:02.805Z,3.90
2023-05-13T09:43:34.485Z,3.40
2023-05-13T09:46:04.936Z,3.90
2023-05-13T09:48:34.461Z,3.40
2023-05-13T09:51:02.407Z,3.30
2023-05-13T09:53:31.715Z,3.50
2023-05-13T09:56:00.717Z,3.70
2023-05-13T09:58:30.919Z,3.50
2023-05-13T10:00:59.290Z,3.30
2023-05-13T10:03:29.411Z,3.50
2023-05-13T10:06:02.284Z,3.50
2023-05-13T10:08:31.547Z,3.20
2023-05-13T10:10:59.834Z,3.30
2023-05-13T10:13:31.697Z,3.70
2023-05-13T10:16:00.258Z,3.40
2023-05-13T10:18:29.364Z,3.30
2023-05-13T10:20:58.258Z,3.80
2023-05-13T10:23:26.710Z,3.50
2023-05-13T10:25:56.109Z,3.30
2023-05-13T10:28:26.693Z,3.00
2023-05-13T10:30:54.833Z,3.30
2023-05-13T10:33:22.985Z,3.40
2023-05-13T10:36:21.357Z,3.30
2023-05-13T10:39:27.638Z,2.90
2023-05-13T10:42:38.439Z,2.80
2023-05-13T10:45:08.339Z,3.30
2023-05-13T10:47:37.329Z,3.10
2023-05-13T10:50:26.055Z,3.00
2023-05-13T10:52:58.798Z,2.60
2023-05-13T10:55:28.322Z,2.80
2023-05-13T10:58:18.413Z,3.40
2023-05-13T11:00:46.263Z,2.90
2023-05-13T11:03:31.878Z,2.70
2023-05-13T11:06:23.963Z,2.90
2023-05-13T11:08:55.959Z,2.90
2023-05-13T11:11:31.397Z,3.00
2023-05-13T11:14:11.419Z,2.70
2023-05-13T11:16:39.508Z,3.00
2023-05-13T11:19:29.834Z,2.90
2023-05-13T11:22:13.157Z,2.80
2023-05-13T11:24:44.494Z,2.70
2023-05-13T11:27:21.204Z,2.90
2023-05-13T11:29:55.632Z,2.80
2023-05-13T11:32:52.099Z,2.90
2023-05-13T11:35:27.598Z,2.70
2023-05-13T11:37:59.134Z,2.70
2023-05-13T11:40:34.228Z,2.80
2023-05-13T11:43:05.247Z,3.10
2023-05-13T11:45:38.454Z,2.60
2023-05-13T11:48:24.320Z,2.50
2023-05-13T11:50:53.887Z,2.50
2023-05-13T11:53:22.977Z,2.80
2023-05-13T11:55:51.885Z,2.60
2023-05-13T11:58:21.658Z,2.90
2023-05-13T12:00:49.796Z,3.00
2023-05-13T12:03:17.620Z,3.20
2023-05-13T12:05:45.487Z,2.70
2023-05-13T12:08:13.432Z,3.50
2023-05-13T12:10:45.185Z,2.80
2023-05-13T12:13:13.220Z,3.00
2023-05-13T12:15:42.543Z,3.00
2023-05-13T12:18:10.549Z,3.70
2023-05-13T12:20:38.456Z,3.20
2023-05-13T12:23:06.635Z,2.90
2023-05-13T12:25:40.365Z,3.30
2023-05-13T12:28:10.780Z,2.90
2023-05-13T12:30:42.537Z,3.00
2023-05-13T12:33:16.789Z,3.00
2023-05-13T12:35:48.594Z,3.10
2023-05-13T12:38:20.020Z,3.20
2023-05-13T12:40:49.568Z,3.50
2023-05-13T12:43:19.731Z,3.30
2023-05-13T12:45:54.889Z,3.50
2023-05-13T12:48:26.272Z,3.60
2023-05-13T12:50:54.164Z,3.00
2023-05-13T12:53:21.940Z,2.70
2023-05-13T12:55:49.715Z,3.10
2023-05-13T12:58:17.676Z,2.70
2023-05-13T13:00:46.317Z,2.90
2023-05-13T13:03:14.350Z,3.10
2023-05-13T13:05:42.240Z,2.80
2023-05-13T13:08:09.988Z,3.10
2023-05-13T13:10:37.815Z,3.40
2023-05-13T13:13:05.704Z,3.00
2023-05-13T13:15:33.572Z,3.30
2023-05-13T13:18:01.499Z,3.40
2023-05-13T13:20:29.543Z,3.80
2023-05-13T13:22:57.521Z,3.90
2023-05-13T13:25:25.408Z,3.60
2023-05-13T13:27:53.190Z,4.30
2023-05-13T13:30:21.078Z,4.00
2023-05-13T13:32:48.936Z,4.10
2023-05-13T13:35:16.837Z,3.70
2023-05-13T13:37:44.593Z,4.40
2023-05-13T13:40:13.787Z,4.10
2023-05-13T13:42:44.552Z,3.80
2023-05-13T13:45:14.317Z,3.40
2023-05-13T13:47:43.195Z,3.20
2023-05-13T13:50:11.530Z,3.70
2023-05-13T13:52:39.375Z,3.30
2023-05-13T13:55:07.855Z,3.40
2023-05-13T13:57:35.654Z,3.20
2023-05-13T14:00:05.172Z,2.90
2023-05-13T14:02:33.232Z,3.30
2023-05-13T14:05:01.383Z,3.10
2023-05-13T14:07:29.397Z,3.10
2023-05-13T14:09:59.546Z,3.40
2023-05-13T14:12:28.834Z,3.20
2023-05-13T14:14:56.713Z,3.40
2023-05-13T14:17:24.756Z,3.10
2023-05-13T14:19:55.501Z,3.30
2023-05-13T14:22:24.576Z,3.40
2023-05-13T14:24:52.835Z,3.20
2023-05-13T14:27:22.036Z,2.70
2023-05-13T14:29:50.699Z,3.20
2023-05-13T14:32:18.601Z,3.60
2023-05-13T14:34:46.551Z,2.60
2023-05-13T14:37:14.410Z,3.40
2023-05-13T14:39:42.359Z,2.90
2023-05-13T14:42:11.783Z,3.10
2023-05-13T14:44:41.615Z,2.80
2023-05-13T14:47:10.737Z,2.80
2023-05-13T14:49:38.597Z,3.50
2023-05-13T14:52:06.482Z,3.00
2023-05-13T14:54:37.036Z,2.90
2023-05-13T14:57:06.744Z,2.90
2023-05-13T14:59:34.735Z,2.60
2023-05-13T15:02:04.282Z,2.60
2023-05-13T15:04:32.261Z,2.90
2023-05-13T15:07:03.703Z,2.90
2023-05-13T15:09:31.688Z,2.60
2023-05-13T15:11:59.592Z,3.00
2023-05-13T15:14:27.342Z,3.20
2023-05-13T15:16:55.478Z,2.60
2023-05-13T15:19:23.342Z,3.00
2023-05-13T15:21:51.249Z,2.80
2023-05-13T15:24:19.114Z,2.70
2023-05-13T15:26:50.712Z,3.10
2023-05-13T15:29:18.865Z,2.70
2023-05-13T15:31:51.109Z,3.00
2023-05-13T15:34:18.884Z,2.90
2023-05-13T15:36:46.706Z,2.90
2023-05-13T15:39:14.582Z,2.80
2023-05-13T15:41:43.504Z,2.60
2023-05-13T15:44:11.413Z,3.00
2023-05-13T15:46:39.494Z,3.00
2023-05-13T15:49:07.413Z,2.60
2023-05-13T15:51:35.958Z,3.10
2023-05-13T15:54:04.076Z,2.70
2023-05-13T15:56:31.966Z,2.60
2023-05-13T15:58:59.888Z,2.90
2023-05-13T16:01:27.862Z,2.70
2023-05-13T16:03:56.157Z,3.00
2023-05-13T16:06:26.985Z,3.10
2023-05-13T16:08:56.466Z,2.80
2023-05-13T16:11:24.773Z,2.50
2023-05-13T16:13:52.995Z,2.70
2023-05-13T16:16:21.688Z,2.90
2023-05-13T16:18:49.952Z,2.50
2023-05-13T16:21:18.223Z,2.20
2023-05-13T16:23:47.015Z,2.70
2023-05-13T16:26:15.160Z,2.70
2023-05-13T16:28:43.250Z,2.30
2023-05-13T16:31:11.255Z,2.90
2023-05-13T16:33:39.221Z,2.30
2023-05-13T16:36:10.137Z,2.70
2023-05-13T16:38:41.774Z,2.60
2023-05-13T16:41:11.008Z,2.90
2023-05-13T16:43:38.836Z,2.80
2023-05-13T16:46:06.803Z,2.70
2023-05-13T16:48:34.618Z,2.50
2023-05-13T16:51:03.871Z,2.90
2023-05-13T16:53:33.521Z,2.60
2023-05-13T16:56:01.436Z,2.80
2023-05-13T16:58:29.451Z,2.40
2023-05-13T17:00:59.243Z,2.60
2023-05-13T17:03:27.967Z,2.40
2023-05-13T17:05:55.925Z,2.30
2023-05-13T17:08:24.604Z,2.60
2023-05-13T17:10:52.431Z,2.50
2023-05-13T17:13:20.666Z,2.50
2023-05-13T17:15:48.667Z,2.60
2023-05-13T17:18:16.548Z,2.60
2023-05-13T17:20:45.826Z,2.80
2023-05-13T17:23:13.741Z,2.60
2023-05-13T17:25:41.656Z,2.90
2023-05-13T17:28:09.604Z,2.70
2023-05-13T17:30:37.550Z,2.80
2023-05-13T17:33:05.551Z,2.30
2023-05-13T17:35:33.390Z,2.90
2023-05-13T17:38:01.218Z,2.80
2023-05-13T17:40:29.157Z,3.00
2023-05-13T17:42:57.267Z,3.70
2023-05-13T17:45:25.237Z,2.30
2023-05-13T17:47:53.078Z,2.40
2023-05-13T17:50:21.460Z,3.60
2023-05-13T17:52:50.105Z,2.60
2023-05-13T17:55:18.035Z,2.80
2023-05-13T17:57:45.940Z,2.70
2023-05-13T18:00:14.776Z,2.80
2023-05-13T18:02:52.581Z,2.60
2023-05-13T18:05:23.626Z,2.70
2023-05-13T18:07:51.603Z,2.50
2023-05-13T18:10:19.509Z,2.70
2023-05-13T18:12:47.564Z,2.60
2023-05-13T18:15:15.621Z,2.80
2023-05-13T18:17:43.871Z,2.70
2023-05-13T18:20:13.302Z,3.00
2023-05-13T18:22:41.139Z,2.70
2023-05-13T18:25:10.462Z,2.70
2023-05-13T18:27:38.557Z,3.50
2023-05-13T18:30:07.813Z,3.00
2023-05-13T18:32:35.713Z,3.00
2023-05-13T18:35:03.941Z,3.70
2023-05-13T18:37:31.748Z,3.40
2023-05-13T18:39:59.848Z,3.20
2023-05-13T18:42:29.692Z,3.50
2023-05-13T18:44:57.735Z,3.90
2023-05-13T18:47:25.624Z,3.70
2023-05-13T18:49:53.499Z,3.10
2023-05-13T18:52:21.625Z,2.80
2023-05-13T18:54:49.477Z,2.70
2023-05-13T18:57:18.117Z,2.50
2023-05-13T18:59:46.143Z,2.90
2023-05-13T19:02:14.320Z,2.50
2023-05-13T19:04:42.728Z,1.80
2023-05-13T19:07:10.581Z,2.00
2023-05-13T19:09:38.555Z,2.30
2023-05-13T19:12:07.700Z,2.00
2023-05-13T19:14:35.862Z,2.60
2023-05-13T19:17:04.077Z,2.10
2023-05-13T19:19:32.025Z,2.20
2023-05-13T19:21:59.760Z,2.10
2023-05-13T19:24:27.588Z,2.30
2023-05-13T19:26:55.798Z,2.20
2023-05-13T19:29:23.695Z,2.10
2023-05-13T19:31:51.914Z,2.50
2023-05-13T19:34:20.048Z,2.40
2023-05-13T19:36:48.034Z,2.70
2023-05-13T19:39:15.784Z,3.40
2023-05-13T19:41:43.681Z,3.60
2023-05-13T19:44:14.684Z,3.50
2023-05-13T19:46:42.814Z,3.40
2023-05-13T19:49:13.622Z,4.20
2023-05-13T19:51:42.086Z,4.00
2023-05-13T19:54:14.434Z,4.50
2023-05-13T19:56:42.775Z,4.00
2023-05-13T19:59:10.640Z,3.70
2023-05-13T20:01:38.512Z,3.90
2023-05-13T20:04:09.158Z,3.90
2023-05-13T20:06:37.530Z,3.60
2023-05-13T20:09:05.963Z,4.00
2023-05-13T20:11:34.156Z,4.30
2023-05-13T20:14:02.301Z,4.50
2023-05-13T20:16:30.078Z,4.50
2023-05-13T20:18:57.902Z,4.20
2023-05-13T20:21:25.858Z,4.70
2023-05-13T20:23:53.948Z,3.90
2023-05-13T20:26:22.208Z,4.30
2023-05-13T20:28:52.085Z,4.10
2023-05-13T20:31:19.971Z,3.90
2023-05-13T20:33:47.985Z,3.50
2023-05-13T20:36:15.900Z,3.50
2023-05-13T20:38:44.011Z,3.80
2023-05-13T20:41:11.800Z,3.30
2023-05-13T20:43:41.715Z,3.30
2023-05-13T20:46:13.141Z,4.70
2023-05-13T20:48:40.951Z,3.60
2023-05-13T20:51:08.997Z,3.90
2023-05-13T20:53:37.450Z,3.30
2023-05-13T20:56:06.560Z,3.30
2023-05-13T20:58:34.407Z,3.00
2023-05-13T21:01:02.732Z,3.30
2023-05-13T21:03:30.640Z,3.40
2023-05-13T21:05:58.595Z,3.00
2023-05-13T21:08:27.466Z,3.30
2023-05-13T21:10:56.477Z,3.60
2023-05-13T21:13:28.198Z,3.60
2023-05-13T21:15:57.453Z,3.30
2023-05-13T21:18:25.975Z,3.30
2023-05-13T21:20:53.970Z,3.20
2023-05-13T21:23:21.758Z,3.20
2023-05-13T21:25:49.563Z,3.30
2023-05-13T21:28:18.767Z,3.20
2023-05-13T21:30:46.571Z,3.30
2023-05-13T21:33:14.504Z,3.10
2023-05-13T21:35:42.231Z,3.20
2023-05-13T21:38:12.624Z,3.30
2023-05-13T21:40:40.779Z,3.30
2023-05-13T21:43:08.580Z,3.20
2023-05-13T21:45:36.406Z,3.30
2023-05-13T21:48:05.705Z,3.10
2023-05-13T21:50:34.712Z,3.30
2023-05-13T21:53:02.558Z,3.40
2023-05-13T21:55:34.778Z,3.60
2023-05-13T21:58:03.255Z,3.10
2023-05-13T22:00:31.783Z,3.40
2023-05-13T22:03:01.420Z,3.20
2023-05-13T22:05:29.620Z,3.50
2023-05-13T22:07:57.545Z,3.20
2023-05-13T22:10:25.530Z,3.30
2023-05-13T22:12:53.634Z,3.70
2023-05-13T22:15:21.502Z,3.70
2023-05-13T22:17:50.755Z,3.20
2023-05-13T22:20:18.938Z,3.80
2023-05-13T22:22:46.676Z,3.60
2023-05-13T22:25:14.459Z,3.40
2023-05-13T22:27:42.277Z,3.70
2023-05-13T22:30:10.548Z,3.40
2023-05-13T22:32:38.470Z,4.10
2023-05-13T22:35:07.566Z,3.30
2023-05-13T22:37:35.309Z,3.20
2023-05-13T22:40:03.150Z,3.50
2023-05-13T22:42:31.069Z,3.30
2023-05-13T22:44:58.852Z,3.80
2023-05-13T22:47:26.649Z,3.50
2023-05-13T22:49:54.565Z,3.20
2023-05-13T22:52:22.348Z,3.10
2023-05-13T22:54:50.091Z,3.30
2023-05-13T22:57:19.215Z,3.60
2023-05-13T22:59:47.041Z,3.00
2023-05-13T23:02:15.789Z,3.50
2023-05-13T23:04:43.759Z,3.60
2023-05-13T23:07:12.009Z,3.70
2023-05-13T23:09:39.891Z,3.30
2023-05-13T23:12:08.293Z,3.40
2023-05-13T23:14:36.092Z,3.10
2023-05-13T23:17:04.133Z,3.60
2023-05-13T23:19:32.073Z,3.10
2023-05-13T23:22:00.133Z,3.80
2023-05-13T23:24:27.894Z,3.30
2023-05-13T23:26:56.309Z,3.40
2023-05-13T23:29:27.723Z,3.40
2023-05-13T23:31:55.790Z,3.90
2023-05-13T23:34:24.006Z,3.60
2023-05-13T23:36:51.749Z,4.00
2023-05-13T23:39:19.520Z,3.70
2023-05-13T23:41:47.572Z,3.50
2023-05-13T23:44:15.486Z,3.60
2023-05-13T23:46:43.241Z,4.00
2023-05-13T23:49:11.117Z,3.60
2023-05-13T23:51:38.874Z,3.50
2023-05-13T23:54:08.365Z,3.50
2023-05-13T23:56:36.136Z,3.50
2023-05-13T23:59:05.611Z,3.60
